createdAt,value
2018-05-04T00:02:10.212Z,13.80
2018-05-04T00:04:38.431Z,13.80
2018-05-04T00:07:06.284Z,13.80
2018-05-04T00:09:33.723Z,13.80
2018-05-04T00:12:01.165Z,13.80
2018-05-04T00:14:29.387Z,13.80
2018-05-04T00:16:56.837Z,13.80
2018-05-04T00:19:24.299Z,13.70
2018-05-04T00:21:51.767Z,13.70
2018-05-04T00:24:19.224Z,13.70
2018-05-04T00:26:46.682Z,13.70
2018-05-04T00:29:14.125Z,13.70
2018-05-04T00:31:41.572Z,13.70
2018-05-04T00:34:09.036Z,13.70
2018-05-04T00:36:36.479Z,13.70
2018-05-04T00:39:03.932Z,13.70
2018-05-04T00:41:31.387Z,13.70
2018-05-04T00:43:58.826Z,13.70
2018-05-04T00:46:27.041Z,13.70
2018-05-04T00:48:54.484Z,13.70
2018-05-04T00:51:21.927Z,13.70
2018-05-04T00:54:01.143Z,13.70
2018-05-04T00:56:28.595Z,13.70
2018-05-04T00:58:56.036Z,13.70
2018-05-04T01:01:23.493Z,13.70
2018-05-04T01:03:50.932Z,13.60
2018-05-04T01:06:18.388Z,13.60
2018-05-04T01:08:45.843Z,13.60
2018-05-04T01:11:13.285Z,13.60
2018-05-04T01:13:40.720Z,13.60
2018-05-04T01:16:08.176Z,13.50
2018-05-04T01:18:35.610Z,13.60
2018-05-04T01:21:03.840Z,13.50
2018-05-04T01:23:31.278Z,13.50
2018-05-04T01:25:58.728Z,13.60
2018-05-04T01:28:26.159Z,13.50
2018-05-04T01:30:54.372Z,13.50
2018-05-04T01:33:21.807Z,13.50
2018-05-04T01:35:49.268Z,13.50
2018-05-04T01:38:16.702Z,13.50
2018-05-04T01:40:44.921Z,13.40
2018-05-04T01:43:12.358Z,13.30
2018-05-04T01:45:39.822Z,13.40
2018-05-04T01:48:07.262Z,13.30
2018-05-04T01:50:35.468Z,13.20
2018-05-04T01:53:02.923Z,13.20
2018-05-04T01:55:30.396Z,13.10
2018-05-04T01:57:57.848Z,13.00
2018-05-04T02:00:25.291Z,13.00
2018-05-04T02:02:52.731Z,13.00
2018-05-04T02:05:20.172Z,12.90
2018-05-04T02:07:48.391Z,12.90
2018-05-04T02:10:15.827Z,12.90
2018-05-04T02:12:43.287Z,12.90
2018-05-04T02:15:10.722Z,12.90
2018-05-04T02:17:38.939Z,12.80
2018-05-04T02:20:06.379Z,12.80
2018-05-04T02:22:33.824Z,12.80
2018-05-04T02:25:01.260Z,12.80
2018-05-04T02:27:29.478Z,12.80
2018-05-04T02:29:56.923Z,12.80
2018-05-04T02:32:24.376Z,12.90
2018-05-04T02:34:51.815Z,12.90
2018-05-04T02:37:20.030Z,12.90
2018-05-04T02:39:47.478Z,12.90
2018-05-04T02:42:16.147Z,12.90
2018-05-04T02:44:43.592Z,12.90
2018-05-04T02:47:11.814Z,12.90
2018-05-04T02:49:39.260Z,12.90
2018-05-04T02:52:06.702Z,12.90
2018-05-04T02:54:34.154Z,12.90
2018-05-04T02:57:02.366Z,12.90
2018-05-04T02:59:29.807Z,12.90
2018-05-04T03:01:57.259Z,12.90
2018-05-04T03:04:24.702Z,12.90
2018-05-04T03:06:52.145Z,12.90
2018-05-04T03:09:20.363Z,12.90
2018-05-04T03:11:47.813Z,12.90
2018-05-04T03:14:15.260Z,12.90
2018-05-04T03:16:42.694Z,12.90
2018-05-04T03:19:10.147Z,12.90
2018-05-04T03:21:38.356Z,12.90
2018-05-04T03:24:05.809Z,12.90
2018-05-04T03:26:33.244Z,12.90
2018-05-04T03:29:00.706Z,12.80
2018-05-04T03:31:28.155Z,12.80
2018-05-04T03:33:56.372Z,12.70
2018-05-04T03:36:23.811Z,12.70
2018-05-04T03:38:51.327Z,12.70
2018-05-04T03:41:18.703Z,12.60
2018-05-04T03:43:46.922Z,12.60
2018-05-04T03:46:15.192Z,12.50
2018-05-04T03:48:42.637Z,12.50
2018-05-04T03:51:10.084Z,12.50
2018-05-04T03:53:37.531Z,12.40
2018-05-04T03:56:04.972Z,12.40
2018-05-04T03:58:45.209Z,12.20
2018-05-04T04:01:24.458Z,12.20
2018-05-04T04:04:04.542Z,12.00
2018-05-04T04:06:31.990Z,12.10
2018-05-04T04:08:59.523Z,12.00
2018-05-04T04:11:27.644Z,12.00
2018-05-04T04:13:55.095Z,12.00
2018-05-04T04:16:22.539Z,11.90
2018-05-04T04:18:49.991Z,11.80
2018-05-04T04:21:17.432Z,11.70
2018-05-04T04:23:45.656Z,11.70
2018-05-04T04:26:13.111Z,11.70
2018-05-04T04:28:40.548Z,11.60
2018-05-04T04:31:08.013Z,11.60
2018-05-04T04:33:35.722Z,11.60
2018-05-04T04:36:03.164Z,11.70
2018-05-04T04:38:30.609Z,11.70
2018-05-04T04:40:58.085Z,11.70
2018-05-04T04:43:25.524Z,11.70
2018-05-04T04:45:52.979Z,11.70
2018-05-04T04:48:20.422Z,11.60
2018-05-04T04:50:47.877Z,11.70
2018-05-04T04:53:15.321Z,11.70
2018-05-04T04:55:42.775Z,11.70
2018-05-04T04:58:10.228Z,11.80
2018-05-04T05:00:38.450Z,11.90
2018-05-04T05:03:15.888Z,11.90
2018-05-04T05:05:44.244Z,12.00
2018-05-04T05:08:11.688Z,11.90
2018-05-04T05:10:39.183Z,12.00
2018-05-04T05:13:07.376Z,12.10
2018-05-04T05:15:34.872Z,12.10
2018-05-04T05:18:02.394Z,12.00
2018-05-04T05:20:29.831Z,12.00
2018-05-04T05:22:58.039Z,11.90
2018-05-04T05:25:25.494Z,11.90
2018-05-04T05:27:53.141Z,12.00
2018-05-04T05:30:20.625Z,12.00
2018-05-04T05:32:48.092Z,12.00
2018-05-04T05:35:15.550Z,12.00
2018-05-04T05:37:43.024Z,12.10
2018-05-04T05:40:10.507Z,12.20
2018-05-04T05:42:38.737Z,12.20
2018-05-04T05:45:06.181Z,12.20
2018-05-04T05:47:33.637Z,12.40
2018-05-04T05:50:01.075Z,12.50
2018-05-04T05:52:28.532Z,12.50
2018-05-04T05:54:55.981Z,12.60
2018-05-04T05:57:24.204Z,12.50
2018-05-04T05:59:51.653Z,12.40
2018-05-04T06:02:19.099Z,12.50
2018-05-04T06:04:46.539Z,12.50
2018-05-04T06:07:13.998Z,12.60
2018-05-04T06:09:41.444Z,12.70
2018-05-04T06:12:09.666Z,12.80
2018-05-04T06:14:37.112Z,12.80
2018-05-04T06:17:04.555Z,12.90
2018-05-04T06:19:31.999Z,13.10
2018-05-04T06:21:59.451Z,13.10
2018-05-04T06:24:26.905Z,13.20
2018-05-04T06:26:54.364Z,13.40
2018-05-04T06:29:22.577Z,13.50
2018-05-04T06:31:50.029Z,13.50
2018-05-04T06:34:17.471Z,13.60
2018-05-04T06:36:44.928Z,13.70
2018-05-04T06:39:12.433Z,13.70
2018-05-04T06:41:39.937Z,13.80
2018-05-04T06:44:07.397Z,13.90
2018-05-04T06:46:34.845Z,14.00
2018-05-04T06:49:02.303Z,14.10
2018-05-04T06:51:29.746Z,14.10
2018-05-04T06:53:57.969Z,14.10
2018-05-04T06:56:25.428Z,14.10
2018-05-04T06:58:52.879Z,14.20
2018-05-04T07:01:20.329Z,14.10
2018-05-04T07:03:47.784Z,14.10
2018-05-04T07:06:15.234Z,14.20
2018-05-04T07:08:42.698Z,14.30
2018-05-04T07:11:10.143Z,14.40
2018-05-04T07:13:37.620Z,14.50
2018-05-04T07:16:05.061Z,14.50
2018-05-04T07:18:32.524Z,14.50
2018-05-04T07:20:59.964Z,14.70
2018-05-04T07:23:27.420Z,14.70
2018-05-04T07:25:55.635Z,15.00
2018-05-04T07:28:23.092Z,14.90
2018-05-04T07:30:51.313Z,15.10
2018-05-04T07:33:19.532Z,15.30
2018-05-04T07:35:46.976Z,15.30
2018-05-04T07:38:14.455Z,15.50
2018-05-04T07:40:41.902Z,15.70
2018-05-04T07:43:09.445Z,15.80
2018-05-04T07:45:36.809Z,16.00
2018-05-04T07:48:04.260Z,16.30
2018-05-04T07:50:31.725Z,16.60
2018-05-04T07:52:59.184Z,16.90
2018-05-04T07:55:26.644Z,17.10
2018-05-04T07:57:54.096Z,17.40
2018-05-04T08:00:21.551Z,17.80
2018-05-04T08:02:49.031Z,18.10
2018-05-04T08:05:16.463Z,18.50
2018-05-04T08:07:43.911Z,18.60
2018-05-04T08:10:11.358Z,18.40
2018-05-04T08:12:39.566Z,18.60
2018-05-04T08:15:07.031Z,18.60
2018-05-04T08:17:34.471Z,18.90
2018-05-04T08:20:01.939Z,19.10
2018-05-04T08:22:29.371Z,19.30
2018-05-04T08:24:56.829Z,19.30
2018-05-04T08:27:24.337Z,19.40
2018-05-04T08:29:51.738Z,19.50
2018-05-04T08:32:19.194Z,19.70
2018-05-04T08:34:47.411Z,19.90
2018-05-04T08:37:14.865Z,19.90
2018-05-04T08:39:42.326Z,20.00
2018-05-04T08:42:09.786Z,20.10
2018-05-04T08:44:37.232Z,20.00
2018-05-04T08:47:04.680Z,20.10
2018-05-04T08:49:32.139Z,20.10
2018-05-04T08:51:59.595Z,20.20
2018-05-04T08:54:27.124Z,20.40
2018-05-04T08:56:54.509Z,20.40
2018-05-04T08:59:21.947Z,20.50
2018-05-04T09:01:49.395Z,20.80
2018-05-04T09:04:16.841Z,21.10
2018-05-04T09:06:45.060Z,21.30
2018-05-04T09:09:12.510Z,21.30
2018-05-04T09:11:39.961Z,21.30
2018-05-04T09:14:07.411Z,21.50
2018-05-04T09:16:34.865Z,21.70
2018-05-04T09:19:02.314Z,21.90
2018-05-04T09:21:30.537Z,21.90
2018-05-04T09:23:57.979Z,21.80
2018-05-04T09:26:25.537Z,22.00
2018-05-04T09:28:52.875Z,22.10
2018-05-04T09:31:20.327Z,22.20
2018-05-04T09:33:47.763Z,22.30
2018-05-04T09:36:15.986Z,22.20
2018-05-04T09:38:43.434Z,22.10
2018-05-04T09:41:10.887Z,22.30
2018-05-04T09:43:38.333Z,22.30
2018-05-04T09:46:05.780Z,22.50
2018-05-04T09:48:33.229Z,22.50
2018-05-04T09:51:01.459Z,22.70
2018-05-04T09:53:28.911Z,22.60
2018-05-04T09:55:56.440Z,22.60
2018-05-04T09:58:23.818Z,22.60
2018-05-04T10:00:51.267Z,22.80
2018-05-04T10:03:18.728Z,22.90
2018-05-04T10:05:46.177Z,22.90
2018-05-04T10:08:13.639Z,23.10
2018-05-04T10:10:41.091Z,23.20
2018-05-04T10:13:08.555Z,23.20
2018-05-04T10:15:35.996Z,23.50
2018-05-04T10:18:03.445Z,23.70
2018-05-04T10:20:30.887Z,23.80
2018-05-04T10:22:59.118Z,24.20
2018-05-04T10:25:26.561Z,24.10
2018-05-04T10:27:54.008Z,24.40
2018-05-04T10:30:21.442Z,24.60
2018-05-04T10:32:48.898Z,24.90
2018-05-04T10:35:16.343Z,24.90
2018-05-04T10:37:44.558Z,24.70
2018-05-04T10:40:12.003Z,24.70
2018-05-04T10:42:39.469Z,24.70
2018-05-04T10:45:06.995Z,24.60
2018-05-04T10:47:34.355Z,24.50
2018-05-04T10:50:02.561Z,23.60
2018-05-04T10:52:30.024Z,23.60
2018-05-04T10:54:57.460Z,23.30
2018-05-04T10:57:24.913Z,23.10
2018-05-04T10:59:52.351Z,22.70
2018-05-04T11:02:20.582Z,22.60
2018-05-04T11:04:48.019Z,22.60
2018-05-04T11:07:15.493Z,22.60
2018-05-04T11:09:42.936Z,22.70
2018-05-04T11:12:10.395Z,23.00
2018-05-04T11:14:37.873Z,23.20
2018-05-04T11:17:05.319Z,23.30
2018-05-04T11:19:32.806Z,23.50
2018-05-04T11:22:00.244Z,23.40
2018-05-04T11:24:27.701Z,23.60
2018-05-04T11:26:55.469Z,24.00
2018-05-04T11:29:23.829Z,24.60
2018-05-04T11:31:51.259Z,24.60
2018-05-04T11:34:19.669Z,24.70
2018-05-04T11:36:47.168Z,24.70
2018-05-04T11:39:14.667Z,24.50
2018-05-04T11:41:42.201Z,24.10
2018-05-04T11:44:10.423Z,23.30
2018-05-04T11:46:37.966Z,23.30
2018-05-04T11:49:05.442Z,23.10
2018-05-04T11:51:32.969Z,23.00
2018-05-04T11:54:00.424Z,22.80
2018-05-04T11:56:27.867Z,22.60
2018-05-04T11:58:59.116Z,22.60
2018-05-04T12:01:26.612Z,22.60
2018-05-04T12:03:54.196Z,22.50
2018-05-04T12:06:21.738Z,22.40
2018-05-04T12:08:49.201Z,22.30
2018-05-04T12:11:16.699Z,22.10
2018-05-04T12:13:44.173Z,22.00
2018-05-04T12:16:12.555Z,21.90
2018-05-04T12:18:40.945Z,21.90
2018-05-04T12:21:08.433Z,21.90
2018-05-04T12:23:35.984Z,21.90
2018-05-04T12:26:03.487Z,21.90
2018-05-04T12:28:30.924Z,21.80
2018-05-04T12:30:58.406Z,21.80
2018-05-04T12:33:26.641Z,22.00
2018-05-04T12:35:54.863Z,22.20
2018-05-04T12:38:23.079Z,22.20
2018-05-04T12:40:50.533Z,22.20
2018-05-04T12:43:17.989Z,22.30
2018-05-04T12:45:45.590Z,22.40
2018-05-04T12:48:13.053Z,22.50
2018-05-04T12:50:40.505Z,22.60
2018-05-04T12:53:07.959Z,22.50
2018-05-04T12:55:35.413Z,22.40
2018-05-04T12:58:02.857Z,22.40
2018-05-04T13:00:31.099Z,22.40
2018-05-04T13:02:58.683Z,22.40
2018-05-04T13:05:26.790Z,22.40
2018-05-04T13:07:54.291Z,22.40
2018-05-04T13:10:21.756Z,22.40
2018-05-04T13:12:49.240Z,22.50
2018-05-04T13:15:17.465Z,22.40
2018-05-04T13:17:45.714Z,22.40
2018-05-04T13:20:13.185Z,22.40
2018-05-04T13:22:41.481Z,22.60
2018-05-04T13:25:08.974Z,22.50
2018-05-04T13:27:36.481Z,22.50
2018-05-04T13:30:03.985Z,22.40
2018-05-04T13:32:31.483Z,22.30
2018-05-04T13:34:58.969Z,22.40
2018-05-04T13:37:27.226Z,22.30
2018-05-04T13:39:54.713Z,22.30
2018-05-04T13:42:22.200Z,22.30
2018-05-04T13:44:49.709Z,22.30
2018-05-04T13:47:17.976Z,22.30
2018-05-04T13:49:45.472Z,22.30
2018-05-04T13:52:12.941Z,22.40
2018-05-04T13:54:40.428Z,22.40
2018-05-04T13:57:07.913Z,22.50
2018-05-04T13:59:35.385Z,22.50
2018-05-04T14:02:03.642Z,22.60
2018-05-04T14:04:31.165Z,22.60
2018-05-04T14:06:58.677Z,22.70
2018-05-04T14:09:26.900Z,22.70
2018-05-04T14:11:54.348Z,22.70
2018-05-04T14:14:21.820Z,22.70
2018-05-04T14:16:49.321Z,22.60
2018-05-04T14:19:17.590Z,22.60
2018-05-04T14:21:45.867Z,22.60
2018-05-04T14:24:14.117Z,22.60
2018-05-04T14:26:41.592Z,22.60
2018-05-04T14:29:09.148Z,22.60
2018-05-04T14:31:36.644Z,22.60
2018-05-04T14:34:04.202Z,22.60
2018-05-04T14:36:31.681Z,22.50
2018-05-04T14:38:59.186Z,22.60
2018-05-04T14:41:26.664Z,22.60
2018-05-04T14:43:54.915Z,22.60
2018-05-04T14:46:22.397Z,22.60
2018-05-04T14:48:50.674Z,22.50
2018-05-04T14:51:31.981Z,22.50
2018-05-04T14:53:59.457Z,22.50
2018-05-04T14:56:26.935Z,22.50
2018-05-04T14:58:54.475Z,22.50
2018-05-04T15:01:22.028Z,22.50
2018-05-04T15:03:49.475Z,22.50
2018-05-04T15:06:16.940Z,22.50
2018-05-04T15:08:44.404Z,22.60
2018-05-04T15:11:12.167Z,22.70
2018-05-04T15:13:42.540Z,22.70
2018-05-04T15:16:10.802Z,22.70
2018-05-04T15:18:38.311Z,22.70
2018-05-04T15:21:05.804Z,22.70
2018-05-04T15:23:33.297Z,22.60
2018-05-04T15:26:01.593Z,22.50
2018-05-04T15:28:36.420Z,22.50
2018-05-04T15:31:10.266Z,22.40
2018-05-04T15:36:32.141Z,22.30
2018-05-04T15:38:59.629Z,22.30
2018-05-04T15:41:27.137Z,22.20
2018-05-04T15:43:54.669Z,22.20
2018-05-04T15:46:22.189Z,22.20
2018-05-04T15:48:56.154Z,22.20
2018-05-04T15:51:29.388Z,22.20
2018-05-04T15:53:56.902Z,22.10
2018-05-04T15:56:24.429Z,22.10
2018-05-04T15:58:51.919Z,22.00
2018-05-04T16:01:19.437Z,21.90
2018-05-04T16:03:46.969Z,21.90
2018-05-04T16:06:14.553Z,21.90
2018-05-04T16:08:41.985Z,21.80
2018-05-04T16:11:10.256Z,21.70
2018-05-04T16:13:38.655Z,21.70
2018-05-04T16:16:06.123Z,21.70
2018-05-04T16:18:34.415Z,21.60
2018-05-04T16:21:01.931Z,21.60
2018-05-04T16:23:29.418Z,21.60
2018-05-04T16:25:57.685Z,21.50
2018-05-04T16:28:25.163Z,21.50
2018-05-04T16:30:52.658Z,21.50
2018-05-04T16:33:20.148Z,21.50
2018-05-04T16:35:47.643Z,21.50
2018-05-04T16:38:15.160Z,21.50
2018-05-04T16:40:42.672Z,21.50
2018-05-04T16:43:10.168Z,21.40
2018-05-04T16:45:37.682Z,21.50
2018-05-04T16:48:10.924Z,21.40
2018-05-04T16:50:38.442Z,21.40
2018-05-04T16:53:05.936Z,21.40
2018-05-04T16:55:33.437Z,21.40
2018-05-04T16:58:00.953Z,21.40
2018-05-04T17:00:28.472Z,21.40
2018-05-04T17:02:56.016Z,21.30
2018-05-04T17:05:23.512Z,21.30
2018-05-04T17:07:51.013Z,21.20
2018-05-04T17:10:19.265Z,21.20
2018-05-04T17:12:46.764Z,21.20
2018-05-04T17:15:14.256Z,21.20
2018-05-04T17:17:41.764Z,21.20
2018-05-04T17:20:09.274Z,21.10
2018-05-04T17:22:36.767Z,21.10
2018-05-04T17:25:04.273Z,21.10
2018-05-04T17:27:31.788Z,21.00
2018-05-04T17:29:59.269Z,21.00
2018-05-04T17:32:26.816Z,21.00
2018-05-04T17:34:55.080Z,20.90
2018-05-04T17:37:22.581Z,20.90
2018-05-04T17:39:50.051Z,20.90
2018-05-04T17:42:17.548Z,20.90
2018-05-04T17:44:45.052Z,20.80
2018-05-04T17:47:12.581Z,20.80
2018-05-04T17:49:40.387Z,20.80
2018-05-04T17:52:07.935Z,20.80
2018-05-04T17:54:35.453Z,20.70
2018-05-04T17:57:03.769Z,20.70
2018-05-04T17:59:31.298Z,20.70
2018-05-04T18:01:59.572Z,20.70
2018-05-04T18:04:27.803Z,20.70
2018-05-04T18:06:55.359Z,20.70
2018-05-04T18:09:22.840Z,20.70
2018-05-04T18:11:50.295Z,20.60
2018-05-04T18:14:18.079Z,20.60
2018-05-04T18:16:45.563Z,20.60
2018-05-04T18:19:13.402Z,20.50
2018-05-04T18:21:40.864Z,20.50
2018-05-04T18:24:08.341Z,20.50
2018-05-04T18:26:36.563Z,20.40
2018-05-04T18:29:04.786Z,20.40
2018-05-04T18:31:33.081Z,20.40
2018-05-04T18:34:00.584Z,20.30
2018-05-04T18:36:28.019Z,20.40
2018-05-04T18:38:55.526Z,20.30
2018-05-04T18:41:23.012Z,20.30
2018-05-04T18:43:50.573Z,20.30
2018-05-04T18:46:18.080Z,20.20
2018-05-04T18:48:49.257Z,20.20
2018-05-04T18:51:17.514Z,20.20
2018-05-04T18:53:45.780Z,20.20
2018-05-04T18:56:13.248Z,20.20
2018-05-04T18:58:40.818Z,20.10
2018-05-04T19:01:08.331Z,20.10
2018-05-04T19:03:35.844Z,20.10
2018-05-04T19:06:04.096Z,20.00
2018-05-04T19:08:31.685Z,20.00
2018-05-04T19:10:59.952Z,20.00
2018-05-04T19:13:28.239Z,19.90
2018-05-04T19:15:56.520Z,19.90
2018-05-04T19:18:24.801Z,19.80
2018-05-04T19:20:52.335Z,19.90
2018-05-04T19:23:19.821Z,19.90
2018-05-04T19:25:47.318Z,19.80
2018-05-04T19:28:16.937Z,19.70
2018-05-04T19:30:44.458Z,19.70
2018-05-04T19:33:12.014Z,19.70
2018-05-04T19:35:39.519Z,19.60
2018-05-04T19:38:07.057Z,19.60
2018-05-04T19:40:34.524Z,19.60
2018-05-04T19:43:02.065Z,19.60
2018-05-04T19:45:30.375Z,19.50
2018-05-04T19:47:59.092Z,19.50
2018-05-04T19:50:26.685Z,19.50
2018-05-04T19:52:54.175Z,19.50
2018-05-04T19:55:21.648Z,19.50
2018-05-04T19:57:49.169Z,19.50
2018-05-04T20:00:16.620Z,19.40
2018-05-04T20:02:44.062Z,19.40
2018-05-04T20:05:11.552Z,19.30
2018-05-04T20:07:41.332Z,19.30
2018-05-04T20:10:08.783Z,19.30
2018-05-04T20:12:36.274Z,19.30
2018-05-04T20:15:03.721Z,19.20
2018-05-04T20:17:31.182Z,19.10
2018-05-04T20:19:58.649Z,19.10
2018-05-04T20:22:26.098Z,19.10
2018-05-04T20:24:53.775Z,19.00
2018-05-04T20:27:21.274Z,19.00
2018-05-04T20:29:49.484Z,18.90
2018-05-04T20:32:16.933Z,18.90
2018-05-04T20:34:44.378Z,18.90
2018-05-04T20:37:12.026Z,18.90
2018-05-04T20:39:40.262Z,18.80
2018-05-04T20:42:11.985Z,18.80
2018-05-04T20:44:39.685Z,18.80
2018-05-04T20:47:07.143Z,18.70
2018-05-04T20:49:34.590Z,18.70
2018-05-04T20:52:02.047Z,18.60
2018-05-04T20:54:29.498Z,18.60
2018-05-04T20:56:56.952Z,18.50
2018-05-04T20:59:24.447Z,18.50
2018-05-04T21:01:52.191Z,18.50
2018-05-04T21:04:26.525Z,18.50
2018-05-04T21:06:53.976Z,18.40
2018-05-04T21:09:21.480Z,18.40
2018-05-04T21:11:48.993Z,18.40
2018-05-04T21:14:16.431Z,18.30
2018-05-04T21:16:43.891Z,18.30
2018-05-04T21:21:45.855Z,18.20
2018-05-04T21:24:13.291Z,18.20
2018-05-04T21:26:40.735Z,18.10
2018-05-04T21:29:08.941Z,18.00
2018-05-04T21:31:36.394Z,18.00
2018-05-04T21:34:03.838Z,18.00
2018-05-04T21:36:31.282Z,17.90
2018-05-04T21:38:59.493Z,17.90
2018-05-04T21:41:26.956Z,17.90
2018-05-04T21:43:54.399Z,18.00
2018-05-04T21:46:21.888Z,17.90
2018-05-04T21:48:49.347Z,17.90
2018-05-04T21:51:16.786Z,17.90
2018-05-04T21:53:44.232Z,17.90
2018-05-04T21:56:11.676Z,17.90
2018-05-04T21:58:39.128Z,17.80
2018-05-04T22:01:06.576Z,17.80
2018-05-04T22:03:34.792Z,17.80
2018-05-04T22:06:02.243Z,17.70
2018-05-04T22:08:29.692Z,17.70
2018-05-04T22:10:57.127Z,17.70
2018-05-04T22:13:25.352Z,17.50
2018-05-04T22:15:52.787Z,17.40
2018-05-04T22:18:20.337Z,17.40
2018-05-04T22:20:47.785Z,17.30
2018-05-04T22:23:15.250Z,17.20
2018-05-04T22:25:42.702Z,17.10
2018-05-04T22:28:10.166Z,17.00
2018-05-04T22:30:37.612Z,16.90
2018-05-04T22:33:05.088Z,16.70
2018-05-04T22:35:32.535Z,16.60
2018-05-04T22:38:00.009Z,16.60
2018-05-04T22:40:27.457Z,16.50
2018-05-04T22:42:54.931Z,16.40
2018-05-04T22:45:22.386Z,16.30
2018-05-04T22:47:49.835Z,16.10
2018-05-04T22:50:17.296Z,16.20
2018-05-04T22:52:44.752Z,16.10
2018-05-04T22:55:12.224Z,16.00
2018-05-04T22:57:39.687Z,15.90
2018-05-04T23:00:07.139Z,15.90
2018-05-04T23:02:34.584Z,15.80
2018-05-04T23:05:02.028Z,15.70
2018-05-04T23:07:29.486Z,15.70
2018-05-04T23:09:56.944Z,15.60
2018-05-04T23:12:24.396Z,15.60
2018-05-04T23:14:51.844Z,15.50
2018-05-04T23:17:19.289Z,15.50
2018-05-04T23:19:47.506Z,15.50
2018-05-04T23:22:31.783Z,15.50
2018-05-04T23:24:59.238Z,15.60
2018-05-04T23:27:26.771Z,15.60
2018-05-04T23:29:54.228Z,15.60
2018-05-04T23:32:21.679Z,15.70
2018-05-04T23:34:49.132Z,15.60
2018-05-04T23:37:16.575Z,15.60
2018-05-04T23:39:44.033Z,15.60
2018-05-04T23:42:11.476Z,15.60
2018-05-04T23:44:39.688Z,15.60
2018-05-04T23:47:07.140Z,15.60
2018-05-04T23:49:34.588Z,15.60
2018-05-04T23:52:02.034Z,15.60
2018-05-04T23:54:29.475Z,15.70
2018-05-04T23:56:57.699Z,15.70
2018-05-04T23:59:25.141Z,15.70
